sensor_id;sensor_type;location;lat;lon;timestamp;P1;durP1;ratioP1;P2;durP2;ratioP2
77202;SDS011;66327;50.096;8.498;2023-02-01T00:00:36;6.07;;;3.35;;
77202;SDS011;66327;50.096;8.498;2023-02-01T00:03:02;6.60;;;3.30;;
77202;SDS011;66327;50.096;8.498;2023-02-01T00:05:31;6.38;;;3.25;;
77202;SDS011;66327;50.096;8.498;2023-02-01T00:07:57;6.20;;;3.08;;
77202;SDS011;66327;50.096;8.498;2023-02-01T00:10:24;6.55;;;3.50;;
77202;SDS011;66327;50.096;8.498;2023-02-01T00:12:50;6.40;;;3.65;;
77202;SDS011;66327;50.096;8.498;2023-02-01T00:15:19;6.13;;;3.42;;
77202;SDS011;66327;50.096;8.498;2023-02-01T00:17:46;8.35;;;3.85;;
77202;SDS011;66327;50.096;8.498;2023-02-01T00:20:13;5.80;;;3.20;;
77202;SDS011;66327;50.096;8.498;2023-02-01T00:22:39;8.40;;;3.50;;
77202;SDS011;66327;50.096;8.498;2023-02-01T00:25:06;3.38;;;2.30;;
77202;SDS011;66327;50.096;8.498;2023-02-01T00:27:32;6.60;;;3.53;;
77202;SDS011;66327;50.096;8.498;2023-02-01T00:29:59;6.80;;;3.88;;
77202;SDS011;66327;50.096;8.498;2023-02-01T00:32:25;6.80;;;3.42;;
77202;SDS011;66327;50.096;8.498;2023-02-01T00:34:52;4.30;;;2.58;;
77202;SDS011;66327;50.096;8.498;2023-02-01T00:37:18;6.65;;;3.13;;
77202;SDS011;66327;50.096;8.498;2023-02-01T00:39:45;4.00;;;2.50;;
77202;SDS011;66327;50.096;8.498;2023-02-01T00:42:11;5.22;;;2.67;;
77202;SDS011;66327;50.096;8.498;2023-02-01T00:44:37;5.25;;;2.63;;
77202;SDS011;66327;50.096;8.498;2023-02-01T00:47:04;5.93;;;2.97;;
77202;SDS011;66327;50.096;8.498;2023-02-01T00:49:30;5.28;;;2.75;;
77202;SDS011;66327;50.096;8.498;2023-02-01T00:51:57;7.25;;;3.05;;
77202;SDS011;66327;50.096;8.498;2023-02-01T00:54:23;6.40;;;3.53;;
77202;SDS011;66327;50.096;8.498;2023-02-01T00:56:49;7.50;;;3.45;;
77202;SDS011;66327;50.096;8.498;2023-02-01T00:59:16;6.93;;;3.10;;
77202;SDS011;66327;50.096;8.498;2023-02-01T01:01:42;5.10;;;2.70;;
77202;SDS011;66327;50.096;8.498;2023-02-01T01:04:09;5.63;;;2.85;;
77202;SDS011;66327;50.096;8.498;2023-02-01T01:06:35;4.50;;;2.15;;
77202;SDS011;66327;50.096;8.498;2023-02-01T01:09:03;10.48;;;3.50;;
77202;SDS011;66327;50.096;8.498;2023-02-01T01:11:33;5.63;;;2.85;;
77202;SDS011;66327;50.096;8.498;2023-02-01T01:14:09;7.13;;;3.75;;
77202;SDS011;66327;50.096;8.498;2023-02-01T01:16:36;7.13;;;3.58;;
77202;SDS011;66327;50.096;8.498;2023-02-01T01:19:02;4.63;;;2.65;;
77202;SDS011;66327;50.096;8.498;2023-02-01T01:21:29;5.10;;;3.13;;
77202;SDS011;66327;50.096;8.498;2023-02-01T01:23:56;8.45;;;3.50;;
77202;SDS011;66327;50.096;8.498;2023-02-01T01:26:23;8.27;;;3.55;;
77202;SDS011;66327;50.096;8.498;2023-02-01T01:28:51;6.15;;;3.33;;
77202;SDS011;66327;50.096;8.498;2023-02-01T01:31:18;7.93;;;2.70;;
77202;SDS011;66327;50.096;8.498;2023-02-01T01:33:52;6.43;;;3.38;;
77202;SDS011;66327;50.096;8.498;2023-02-01T01:36:21;6.60;;;3.33;;
77202;SDS011;66327;50.096;8.498;2023-02-01T01:38:48;6.88;;;3.25;;
77202;SDS011;66327;50.096;8.498;2023-02-01T01:41:15;6.30;;;3.13;;
77202;SDS011;66327;50.096;8.498;2023-02-01T01:43:56;4.93;;;3.03;;
77202;SDS011;66327;50.096;8.498;2023-02-01T01:46:28;7.28;;;3.80;;
77202;SDS011;66327;50.096;8.498;2023-02-01T01:49:01;4.70;;;2.10;;
77202;SDS011;66327;50.096;8.498;2023-02-01T01:51:47;4.47;;;2.45;;
77202;SDS011;66327;50.096;8.498;2023-02-01T01:56:43;5.72;;;3.33;;
77202;SDS011;66327;50.096;8.498;2023-02-01T01:59:14;5.45;;;3.00;;
77202;SDS011;66327;50.096;8.498;2023-02-01T02:01:40;9.32;;;4.22;;
77202;SDS011;66327;50.096;8.498;2023-02-01T02:04:07;6.95;;;4.07;;
77202;SDS011;66327;50.096;8.498;2023-02-01T02:06:39;9.75;;;4.03;;
77202;SDS011;66327;50.096;8.498;2023-02-01T02:09:11;6.72;;;3.60;;
77202;SDS011;66327;50.096;8.498;2023-02-01T02:11:37;7.22;;;3.60;;
77202;SDS011;66327;50.096;8.498;2023-02-01T02:14:04;7.40;;;4.30;;
77202;SDS011;66327;50.096;8.498;2023-02-01T02:19:22;6.60;;;3.40;;
77202;SDS011;66327;50.096;8.498;2023-02-01T02:27:50;7.28;;;2.28;;
77202;SDS011;66327;50.096;8.498;2023-02-01T02:30:34;11.65;;;3.55;;
77202;SDS011;66327;50.096;8.498;2023-02-01T02:36:35;7.63;;;3.53;;
77202;SDS011;66327;50.096;8.498;2023-02-01T02:39:21;7.32;;;4.53;;
77202;SDS011;66327;50.096;8.498;2023-02-01T02:42:00;10.05;;;4.80;;
77202;SDS011;66327;50.096;8.498;2023-02-01T02:44:53;3.83;;;2.05;;
77202;SDS011;66327;50.096;8.498;2023-02-01T02:48:03;4.20;;;2.63;;
77202;SDS011;66327;50.096;8.498;2023-02-01T02:50:54;5.93;;;3.58;;
77202;SDS011;66327;50.096;8.498;2023-02-01T02:54:00;10.73;;;4.00;;
77202;SDS011;66327;50.096;8.498;2023-02-01T02:56:49;7.38;;;4.07;;
77202;SDS011;66327;50.096;8.498;2023-02-01T02:59:35;12.20;;;2.90;;
77202;SDS011;66327;50.096;8.498;2023-02-01T03:02:20;6.55;;;3.65;;
77202;SDS011;66327;50.096;8.498;2023-02-01T03:05:06;6.82;;;3.65;;
77202;SDS011;66327;50.096;8.498;2023-02-01T03:13:10;10.50;;;3.65;;
77202;SDS011;66327;50.096;8.498;2023-02-01T03:15:44;7.38;;;3.47;;
77202;SDS011;66327;50.096;8.498;2023-02-01T03:18:18;5.53;;;3.22;;
77202;SDS011;66327;50.096;8.498;2023-02-01T03:20:52;10.30;;;4.18;;
77202;SDS011;66327;50.096;8.498;2023-02-01T03:23:21;7.13;;;3.55;;
77202;SDS011;66327;50.096;8.498;2023-02-01T03:25:49;9.30;;;3.60;;
77202;SDS011;66327;50.096;8.498;2023-02-01T03:28:17;4.68;;;2.58;;
77202;SDS011;66327;50.096;8.498;2023-02-01T03:30:47;6.45;;;3.40;;
77202;SDS011;66327;50.096;8.498;2023-02-01T03:33:19;5.00;;;3.45;;
77202;SDS011;66327;50.096;8.498;2023-02-01T03:36:01;8.68;;;3.90;;
77202;SDS011;66327;50.096;8.498;2023-02-01T03:38:45;7.28;;;3.33;;
77202;SDS011;66327;50.096;8.498;2023-02-01T03:41:23;5.90;;;2.65;;
77202;SDS011;66327;50.096;8.498;2023-02-01T03:43:54;4.68;;;3.20;;
77202;SDS011;66327;50.096;8.498;2023-02-01T03:46:43;8.43;;;2.90;;
77202;SDS011;66327;50.096;8.498;2023-02-01T03:49:16;6.40;;;2.88;;
77202;SDS011;66327;50.096;8.498;2023-02-01T03:51:45;5.10;;;2.80;;
77202;SDS011;66327;50.096;8.498;2023-02-01T03:54:13;5.13;;;3.05;;
77202;SDS011;66327;50.096;8.498;2023-02-01T03:56:42;7.18;;;3.15;;
77202;SDS011;66327;50.096;8.498;2023-02-01T03:59:10;12.43;;;4.32;;
77202;SDS011;66327;50.096;8.498;2023-02-01T04:01:37;8.18;;;3.75;;
77202;SDS011;66327;50.096;8.498;2023-02-01T04:04:03;7.88;;;3.45;;
77202;SDS011;66327;50.096;8.498;2023-02-01T04:06:30;6.38;;;3.08;;
77202;SDS011;66327;50.096;8.498;2023-02-01T04:08:56;4.95;;;2.75;;
77202;SDS011;66327;50.096;8.498;2023-02-01T04:11:23;5.30;;;3.28;;
77202;SDS011;66327;50.096;8.498;2023-02-01T04:13:49;6.55;;;3.47;;
77202;SDS011;66327;50.096;8.498;2023-02-01T04:16:16;6.40;;;2.97;;
77202;SDS011;66327;50.096;8.498;2023-02-01T04:18:42;6.30;;;3.05;;
77202;SDS011;66327;50.096;8.498;2023-02-01T04:21:09;10.98;;;4.28;;
77202;SDS011;66327;50.096;8.498;2023-02-01T04:23:37;9.90;;;3.60;;
77202;SDS011;66327;50.096;8.498;2023-02-01T04:26:04;7.63;;;3.95;;
77202;SDS011;66327;50.096;8.498;2023-02-01T04:28:31;7.40;;;3.50;;
77202;SDS011;66327;50.096;8.498;2023-02-01T04:30:57;5.93;;;3.22;;
77202;SDS011;66327;50.096;8.498;2023-02-01T04:33:24;8.13;;;3.90;;
77202;SDS011;66327;50.096;8.498;2023-02-01T04:35:51;7.85;;;3.80;;
77202;SDS011;66327;50.096;8.498;2023-02-01T04:38:17;4.85;;;2.83;;
77202;SDS011;66327;50.096;8.498;2023-02-01T04:40:46;7.53;;;2.78;;
77202;SDS011;66327;50.096;8.498;2023-02-01T04:43:13;6.85;;;3.50;;
77202;SDS011;66327;50.096;8.498;2023-02-01T04:45:39;6.90;;;3.15;;
77202;SDS011;66327;50.096;8.498;2023-02-01T04:48:06;7.38;;;3.53;;
77202;SDS011;66327;50.096;8.498;2023-02-01T04:50:32;7.32;;;3.78;;
77202;SDS011;66327;50.096;8.498;2023-02-01T04:52:59;8.38;;;3.20;;
77202;SDS011;66327;50.096;8.498;2023-02-01T04:55:25;9.27;;;3.92;;
77202;SDS011;66327;50.096;8.498;2023-02-01T04:57:51;7.63;;;3.50;;
77202;SDS011;66327;50.096;8.498;2023-02-01T05:00:18;4.82;;;2.90;;
77202;SDS011;66327;50.096;8.498;2023-02-01T05:02:44;6.47;;;3.17;;
77202;SDS011;66327;50.096;8.498;2023-02-01T05:05:11;6.03;;;3.30;;
77202;SDS011;66327;50.096;8.498;2023-02-01T05:07:37;8.75;;;3.08;;
77202;SDS011;66327;50.096;8.498;2023-02-01T05:10:04;5.72;;;2.65;;
77202;SDS011;66327;50.096;8.498;2023-02-01T05:12:30;5.13;;;2.83;;
77202;SDS011;66327;50.096;8.498;2023-02-01T05:15:16;7.60;;;3.63;;
77202;SDS011;66327;50.096;8.498;2023-02-01T05:17:42;4.95;;;2.25;;
77202;SDS011;66327;50.096;8.498;2023-02-01T05:20:09;7.70;;;2.63;;
77202;SDS011;66327;50.096;8.498;2023-02-01T05:22:36;6.15;;;3.35;;
77202;SDS011;66327;50.096;8.498;2023-02-01T05:25:02;6.97;;;2.65;;
77202;SDS011;66327;50.096;8.498;2023-02-01T05:27:29;4.43;;;2.40;;
77202;SDS011;66327;50.096;8.498;2023-02-01T05:29:57;3.90;;;2.05;;
77202;SDS011;66327;50.096;8.498;2023-02-01T05:32:23;4.60;;;1.92;;
77202;SDS011;66327;50.096;8.498;2023-02-01T05:34:49;2.55;;;1.65;;
77202;SDS011;66327;50.096;8.498;2023-02-01T05:37:16;4.00;;;2.30;;
77202;SDS011;66327;50.096;8.498;2023-02-01T05:39:42;4.43;;;2.00;;
77202;SDS011;66327;50.096;8.498;2023-02-01T05:42:09;7.47;;;2.55;;
77202;SDS011;66327;50.096;8.498;2023-02-01T05:44:35;7.78;;;2.47;;
77202;SDS011;66327;50.096;8.498;2023-02-01T05:47:02;6.70;;;2.30;;
77202;SDS011;66327;50.096;8.498;2023-02-01T05:49:28;5.25;;;1.50;;
77202;SDS011;66327;50.096;8.498;2023-02-01T05:51:54;5.03;;;2.33;;
77202;SDS011;66327;50.096;8.498;2023-02-01T05:54:21;6.07;;;4.38;;
77202;SDS011;66327;50.096;8.498;2023-02-01T05:56:48;3.95;;;2.05;;
77202;SDS011;66327;50.096;8.498;2023-02-01T05:59:14;8.40;;;2.33;;
77202;SDS011;66327;50.096;8.498;2023-02-01T06:01:40;4.03;;;1.95;;
77202;SDS011;66327;50.096;8.498;2023-02-01T06:04:07;9.70;;;3.28;;
77202;SDS011;66327;50.096;8.498;2023-02-01T06:06:36;2.95;;;1.17;;
77202;SDS011;66327;50.096;8.498;2023-02-01T06:09:03;6.53;;;2.05;;
77202;SDS011;66327;50.096;8.498;2023-02-01T06:11:29;2.78;;;1.77;;
77202;SDS011;66327;50.096;8.498;2023-02-01T06:13:58;5.57;;;2.38;;
77202;SDS011;66327;50.096;8.498;2023-02-01T06:16:27;5.45;;;1.60;;
77202;SDS011;66327;50.096;8.498;2023-02-01T06:18:53;7.40;;;2.35;;
77202;SDS011;66327;50.096;8.498;2023-02-01T06:21:20;4.65;;;2.30;;
77202;SDS011;66327;50.096;8.498;2023-02-01T06:23:50;9.93;;;2.22;;
77202;SDS011;66327;50.096;8.498;2023-02-01T06:26:17;9.30;;;2.40;;
77202;SDS011;66327;50.096;8.498;2023-02-01T06:28:44;5.63;;;2.50;;
77202;SDS011;66327;50.096;8.498;2023-02-01T06:31:10;12.13;;;2.95;;
77202;SDS011;66327;50.096;8.498;2023-02-01T06:33:38;3.35;;;1.65;;
77202;SDS011;66327;50.096;8.498;2023-02-01T06:36:05;2.22;;;1.17;;
77202;SDS011;66327;50.096;8.498;2023-02-01T06:38:33;7.55;;;2.22;;
77202;SDS011;66327;50.096;8.498;2023-02-01T06:41:03;6.78;;;3.05;;
77202;SDS011;66327;50.096;8.498;2023-02-01T06:43:30;6.20;;;2.50;;
77202;SDS011;66327;50.096;8.498;2023-02-01T06:45:59;3.63;;;1.90;;
77202;SDS011;66327;50.096;8.498;2023-02-01T06:48:27;7.60;;;2.33;;
77202;SDS011;66327;50.096;8.498;2023-02-01T06:50:56;5.57;;;2.30;;
77202;SDS011;66327;50.096;8.498;2023-02-01T06:53:22;6.57;;;2.25;;
77202;SDS011;66327;50.096;8.498;2023-02-01T06:55:53;6.07;;;2.67;;
77202;SDS011;66327;50.096;8.498;2023-02-01T06:58:23;3.90;;;1.88;;
77202;SDS011;66327;50.096;8.498;2023-02-01T07:00:50;3.70;;;0.90;;
77202;SDS011;66327;50.096;8.498;2023-02-01T07:03:17;7.47;;;2.88;;
77202;SDS011;66327;50.096;8.498;2023-02-01T07:05:43;2.92;;;1.55;;
77202;SDS011;66327;50.096;8.498;2023-02-01T07:08:09;4.75;;;1.75;;
77202;SDS011;66327;50.096;8.498;2023-02-01T07:10:36;12.68;;;2.78;;
77202;SDS011;66327;50.096;8.498;2023-02-01T07:13:03;2.47;;;1.20;;
77202;SDS011;66327;50.096;8.498;2023-02-01T07:15:29;6.63;;;1.77;;
77202;SDS011;66327;50.096;8.498;2023-02-01T07:17:55;7.80;;;2.13;;
77202;SDS011;66327;50.096;8.498;2023-02-01T07:20:22;5.35;;;2.13;;
77202;SDS011;66327;50.096;8.498;2023-02-01T07:22:54;4.20;;;1.63;;
77202;SDS011;66327;50.096;8.498;2023-02-01T07:25:21;2.90;;;1.10;;
77202;SDS011;66327;50.096;8.498;2023-02-01T07:27:47;6.25;;;1.98;;
77202;SDS011;66327;50.096;8.498;2023-02-01T07:30:13;6.72;;;2.28;;
77202;SDS011;66327;50.096;8.498;2023-02-01T07:32:40;8.75;;;2.55;;
77202;SDS011;66327;50.096;8.498;2023-02-01T07:35:07;5.85;;;1.95;;
77202;SDS011;66327;50.096;8.498;2023-02-01T07:37:33;5.18;;;1.88;;
77202;SDS011;66327;50.096;8.498;2023-02-01T07:40:00;9.10;;;2.42;;
77202;SDS011;66327;50.096;8.498;2023-02-01T07:42:26;8.52;;;1.73;;
77202;SDS011;66327;50.096;8.498;2023-02-01T07:44:53;5.90;;;2.17;;
77202;SDS011;66327;50.096;8.498;2023-02-01T07:47:19;4.32;;;1.75;;
77202;SDS011;66327;50.096;8.498;2023-02-01T07:49:46;1.35;;;0.68;;
77202;SDS011;66327;50.096;8.498;2023-02-01T07:52:13;3.75;;;1.85;;
77202;SDS011;66327;50.096;8.498;2023-02-01T07:54:41;4.10;;;1.75;;
77202;SDS011;66327;50.096;8.498;2023-02-01T07:57:09;3.88;;;1.75;;
77202;SDS011;66327;50.096;8.498;2023-02-01T07:59:37;4.47;;;1.67;;
77202;SDS011;66327;50.096;8.498;2023-02-01T08:02:27;1.50;;;0.75;;
77202;SDS011;66327;50.096;8.498;2023-02-01T08:04:53;7.45;;;1.65;;
77202;SDS011;66327;50.096;8.498;2023-02-01T08:07:20;4.13;;;1.30;;
77202;SDS011;66327;50.096;8.498;2023-02-01T08:09:46;1.88;;;0.90;;
77202;SDS011;66327;50.096;8.498;2023-02-01T08:12:12;3.40;;;1.30;;
77202;SDS011;66327;50.096;8.498;2023-02-01T08:14:39;7.80;;;1.73;;
77202;SDS011;66327;50.096;8.498;2023-02-01T08:17:06;6.70;;;2.47;;
77202;SDS011;66327;50.096;8.498;2023-02-01T08:19:33;6.53;;;2.13;;
77202;SDS011;66327;50.096;8.498;2023-02-01T08:22:00;9.75;;;2.20;;
77202;SDS011;66327;50.096;8.498;2023-02-01T08:26:54;2.03;;;1.10;;
77202;SDS011;66327;50.096;8.498;2023-02-01T08:29:23;8.50;;;1.95;;
77202;SDS011;66327;50.096;8.498;2023-02-01T08:31:49;7.13;;;2.35;;
77202;SDS011;66327;50.096;8.498;2023-02-01T08:34:16;4.88;;;2.22;;
77202;SDS011;66327;50.096;8.498;2023-02-01T08:36:43;5.57;;;2.28;;
77202;SDS011;66327;50.096;8.498;2023-02-01T08:39:10;6.03;;;2.28;;
77202;SDS011;66327;50.096;8.498;2023-02-01T08:41:37;6.38;;;1.60;;
77202;SDS011;66327;50.096;8.498;2023-02-01T08:44:04;7.07;;;1.75;;
77202;SDS011;66327;50.096;8.498;2023-02-01T08:46:31;3.35;;;1.45;;
77202;SDS011;66327;50.096;8.498;2023-02-01T08:48:57;8.00;;;2.63;;
77202;SDS011;66327;50.096;8.498;2023-02-01T08:51:24;7.50;;;1.75;;
77202;SDS011;66327;50.096;8.498;2023-02-01T08:53:50;3.40;;;1.55;;
77202;SDS011;66327;50.096;8.498;2023-02-01T08:56:17;2.50;;;1.27;;
77202;SDS011;66327;50.096;8.498;2023-02-01T09:01:13;7.22;;;1.58;;
77202;SDS011;66327;50.096;8.498;2023-02-01T09:03:41;4.57;;;1.60;;
77202;SDS011;66327;50.096;8.498;2023-02-01T09:06:09;7.28;;;2.47;;
77202;SDS011;66327;50.096;8.498;2023-02-01T09:08:37;5.97;;;1.52;;
77202;SDS011;66327;50.096;8.498;2023-02-01T09:11:10;5.38;;;1.27;;
77202;SDS011;66327;50.096;8.498;2023-02-01T09:13:38;8.23;;;2.05;;
77202;SDS011;66327;50.096;8.498;2023-02-01T09:16:04;10.05;;;2.22;;
77202;SDS011;66327;50.096;8.498;2023-02-01T09:18:31;5.50;;;2.00;;
77202;SDS011;66327;50.096;8.498;2023-02-01T09:20:58;6.38;;;2.47;;
77202;SDS011;66327;50.096;8.498;2023-02-01T09:23:25;8.48;;;1.75;;
77202;SDS011;66327;50.096;8.498;2023-02-01T09:25:51;7.40;;;1.98;;
77202;SDS011;66327;50.096;8.498;2023-02-01T09:28:18;5.18;;;1.75;;
77202;SDS011;66327;50.096;8.498;2023-02-01T09:30:44;2.03;;;1.10;;
77202;SDS011;66327;50.096;8.498;2023-02-01T09:33:11;4.55;;;1.85;;
77202;SDS011;66327;50.096;8.498;2023-02-01T09:35:38;5.03;;;1.45;;
77202;SDS011;66327;50.096;8.498;2023-02-01T09:38:05;8.40;;;1.85;;
77202;SDS011;66327;50.096;8.498;2023-02-01T09:40:32;5.18;;;1.75;;
77202;SDS011;66327;50.096;8.498;2023-02-01T09:43:09;6.88;;;1.90;;
77202;SDS011;66327;50.096;8.498;2023-02-01T09:48:32;3.53;;;1.35;;
77202;SDS011;66327;50.096;8.498;2023-02-01T09:51:02;2.40;;;1.13;;
77202;SDS011;66327;50.096;8.498;2023-02-01T09:53:41;4.90;;;2.13;;
77202;SDS011;66327;50.096;8.498;2023-02-01T09:56:14;6.00;;;2.45;;
77202;SDS011;66327;50.096;8.498;2023-02-01T09:58:55;6.68;;;1.55;;
77202;SDS011;66327;50.096;8.498;2023-02-01T10:01:28;5.82;;;2.05;;
77202;SDS011;66327;50.096;8.498;2023-02-01T10:03:57;4.05;;;1.73;;
77202;SDS011;66327;50.096;8.498;2023-02-01T10:06:52;5.55;;;2.15;;
77202;SDS011;66327;50.096;8.498;2023-02-01T10:20:18;11.70;;;1.90;;
77202;SDS011;66327;50.096;8.498;2023-02-01T10:23:03;6.50;;;1.63;;
77202;SDS011;66327;50.096;8.498;2023-02-01T10:26:04;6.40;;;1.85;;
77202;SDS011;66327;50.096;8.498;2023-02-01T10:28:39;3.40;;;1.08;;
77202;SDS011;66327;50.096;8.498;2023-02-01T10:31:05;6.95;;;2.15;;
77202;SDS011;66327;50.096;8.498;2023-02-01T10:33:44;5.97;;;1.15;;
77202;SDS011;66327;50.096;8.498;2023-02-01T10:36:35;3.97;;;1.73;;
77202;SDS011;66327;50.096;8.498;2023-02-01T10:39:04;8.65;;;2.42;;
77202;SDS011;66327;50.096;8.498;2023-02-01T10:41:36;7.55;;;1.85;;
77202;SDS011;66327;50.096;8.498;2023-02-01T10:44:15;3.63;;;1.63;;
77202;SDS011;66327;50.096;8.498;2023-02-01T10:46:43;9.32;;;2.35;;
77202;SDS011;66327;50.096;8.498;2023-02-01T10:49:15;4.72;;;1.77;;
77202;SDS011;66327;50.096;8.498;2023-02-01T10:51:51;6.13;;;1.83;;
77202;SDS011;66327;50.096;8.498;2023-02-01T10:54:22;6.68;;;1.75;;
77202;SDS011;66327;50.096;8.498;2023-02-01T10:56:57;5.05;;;1.80;;
77202;SDS011;66327;50.096;8.498;2023-02-01T10:59:28;5.63;;;1.65;;
77202;SDS011;66327;50.096;8.498;2023-02-01T11:01:59;4.38;;;1.45;;
77202;SDS011;66327;50.096;8.498;2023-02-01T11:04:28;5.68;;;1.73;;
77202;SDS011;66327;50.096;8.498;2023-02-01T11:07:06;8.38;;;2.55;;
77202;SDS011;66327;50.096;8.498;2023-02-01T11:09:42;7.93;;;2.65;;
77202;SDS011;66327;50.096;8.498;2023-02-01T11:12:23;6.72;;;1.60;;
77202;SDS011;66327;50.096;8.498;2023-02-01T11:14:56;6.95;;;2.42;;
77202;SDS011;66327;50.096;8.498;2023-02-01T11:17:28;11.00;;;1.92;;
77202;SDS011;66327;50.096;8.498;2023-02-01T11:20:02;6.47;;;1.63;;
77202;SDS011;66327;50.096;8.498;2023-02-01T11:22:30;10.82;;;2.10;;
77202;SDS011;66327;50.096;8.498;2023-02-01T11:24:57;11.13;;;1.75;;
77202;SDS011;66327;50.096;8.498;2023-02-01T11:27:25;7.35;;;2.00;;
77202;SDS011;66327;50.096;8.498;2023-02-01T11:32:22;3.25;;;1.02;;
77202;SDS011;66327;50.096;8.498;2023-02-01T11:34:51;3.75;;;1.38;;
77202;SDS011;66327;50.096;8.498;2023-02-01T11:37:27;6.32;;;1.92;;
77202;SDS011;66327;50.096;8.498;2023-02-01T11:39:58;4.25;;;2.42;;
77202;SDS011;66327;50.096;8.498;2023-02-01T11:42:28;6.75;;;2.08;;
77202;SDS011;66327;50.096;8.498;2023-02-01T11:45:19;5.53;;;1.60;;
77202;SDS011;66327;50.096;8.498;2023-02-01T11:47:48;7.55;;;2.08;;
77202;SDS011;66327;50.096;8.498;2023-02-01T11:50:19;5.90;;;2.13;;
77202;SDS011;66327;50.096;8.498;2023-02-01T11:52:55;5.30;;;1.70;;
77202;SDS011;66327;50.096;8.498;2023-02-01T12:01:04;2.60;;;1.38;;
77202;SDS011;66327;50.096;8.498;2023-02-01T12:20:04;3.60;;;1.52;;
77202;SDS011;66327;50.096;8.498;2023-02-01T12:25:30;4.20;;;1.60;;
77202;SDS011;66327;50.096;8.498;2023-02-01T12:33:43;8.18;;;2.38;;
77202;SDS011;66327;50.096;8.498;2023-02-01T12:36:25;6.53;;;1.95;;
77202;SDS011;66327;50.096;8.498;2023-02-01T12:39:04;3.83;;;1.63;;
77202;SDS011;66327;50.096;8.498;2023-02-01T12:44:56;5.78;;;1.20;;
77202;SDS011;66327;50.096;8.498;2023-02-01T12:47:28;8.13;;;1.92;;
77202;SDS011;66327;50.096;8.498;2023-02-01T12:55:17;6.03;;;1.63;;
77202;SDS011;66327;50.096;8.498;2023-02-01T12:57:50;8.65;;;1.60;;
77202;SDS011;66327;50.096;8.498;2023-02-01T13:00:34;6.53;;;1.58;;
77202;SDS011;66327;50.096;8.498;2023-02-01T13:03:17;6.00;;;1.88;;
77202;SDS011;66327;50.096;8.498;2023-02-01T13:05:57;6.97;;;1.80;;
77202;SDS011;66327;50.096;8.498;2023-02-01T13:11:38;6.22;;;1.85;;
77202;SDS011;66327;50.096;8.498;2023-02-01T13:16:57;4.50;;;1.40;;
77202;SDS011;66327;50.096;8.498;2023-02-01T13:22:05;13.73;;;2.30;;
77202;SDS011;66327;50.096;8.498;2023-02-01T13:27:36;6.68;;;2.15;;
77202;SDS011;66327;50.096;8.498;2023-02-01T13:30:26;7.40;;;1.60;;
77202;SDS011;66327;50.096;8.498;2023-02-01T13:36:06;5.15;;;1.30;;
77202;SDS011;66327;50.096;8.498;2023-02-01T13:43:48;2.53;;;1.67;;
77202;SDS011;66327;50.096;8.498;2023-02-01T13:46:16;2.85;;;1.02;;
77202;SDS011;66327;50.096;8.498;2023-02-01T13:48:59;3.90;;;0.90;;
77202;SDS011;66327;50.096;8.498;2023-02-01T13:51:37;7.13;;;1.88;;
77202;SDS011;66327;50.096;8.498;2023-02-01T13:54:22;5.80;;;1.50;;
77202;SDS011;66327;50.096;8.498;2023-02-01T13:56:51;9.32;;;1.75;;
77202;SDS011;66327;50.096;8.498;2023-02-01T14:05:07;4.28;;;1.73;;
77202;SDS011;66327;50.096;8.498;2023-02-01T14:08:02;3.90;;;1.30;;
77202;SDS011;66327;50.096;8.498;2023-02-01T14:21:21;4.78;;;1.60;;
77202;SDS011;66327;50.096;8.498;2023-02-01T14:24:00;7.70;;;2.17;;
77202;SDS011;66327;50.096;8.498;2023-02-01T14:47:49;4.50;;;1.55;;
77202;SDS011;66327;50.096;8.498;2023-02-01T14:55:43;3.67;;;1.35;;
77202;SDS011;66327;50.096;8.498;2023-02-01T15:01:04;2.92;;;1.48;;
77202;SDS011;66327;50.096;8.498;2023-02-01T15:03:52;4.10;;;1.58;;
77202;SDS011;66327;50.096;8.498;2023-02-01T15:09:08;2.80;;;1.80;;
77202;SDS011;66327;50.096;8.498;2023-02-01T15:14:32;7.05;;;1.80;;
77202;SDS011;66327;50.096;8.498;2023-02-01T15:17:03;6.97;;;1.50;;
77202;SDS011;66327;50.096;8.498;2023-02-01T15:22:20;2.30;;;0.98;;
77202;SDS011;66327;50.096;8.498;2023-02-01T15:24:53;4.35;;;1.70;;
77202;SDS011;66327;50.096;8.498;2023-02-01T15:27:21;7.72;;;2.20;;
77202;SDS011;66327;50.096;8.498;2023-02-01T15:29:48;6.30;;;1.60;;
77202;SDS011;66327;50.096;8.498;2023-02-01T15:32:30;3.30;;;1.52;;
77202;SDS011;66327;50.096;8.498;2023-02-01T15:35:01;5.10;;;1.85;;
77202;SDS011;66327;50.096;8.498;2023-02-01T15:37:28;8.25;;;1.90;;
77202;SDS011;66327;50.096;8.498;2023-02-01T15:42:37;5.85;;;2.00;;
77202;SDS011;66327;50.096;8.498;2023-02-01T15:45:17;2.58;;;1.48;;
77202;SDS011;66327;50.096;8.498;2023-02-01T15:47:46;4.75;;;1.80;;
77202;SDS011;66327;50.096;8.498;2023-02-01T15:50:20;2.30;;;1.02;;
77202;SDS011;66327;50.096;8.498;2023-02-01T15:52:51;5.63;;;1.90;;
77202;SDS011;66327;50.096;8.498;2023-02-01T15:55:23;6.38;;;1.63;;
77202;SDS011;66327;50.096;8.498;2023-02-01T15:57:51;5.45;;;1.90;;
77202;SDS011;66327;50.096;8.498;2023-02-01T16:00:22;8.32;;;2.03;;
77202;SDS011;66327;50.096;8.498;2023-02-01T16:02:59;3.20;;;1.42;;
77202;SDS011;66327;50.096;8.498;2023-02-01T16:05:32;8.20;;;1.80;;
77202;SDS011;66327;50.096;8.498;2023-02-01T16:10:50;10.38;;;2.35;;
77202;SDS011;66327;50.096;8.498;2023-02-01T16:13:19;5.57;;;2.08;;
77202;SDS011;66327;50.096;8.498;2023-02-01T16:15:47;5.63;;;1.40;;
77202;SDS011;66327;50.096;8.498;2023-02-01T16:18:14;3.75;;;1.17;;
77202;SDS011;66327;50.096;8.498;2023-02-01T16:20:44;2.40;;;1.02;;
77202;SDS011;66327;50.096;8.498;2023-02-01T16:23:10;6.63;;;1.58;;
77202;SDS011;66327;50.096;8.498;2023-02-01T16:25:37;5.35;;;1.40;;
77202;SDS011;66327;50.096;8.498;2023-02-01T16:28:04;6.93;;;1.42;;
77202;SDS011;66327;50.096;8.498;2023-02-01T16:30:31;7.30;;;1.52;;
77202;SDS011;66327;50.096;8.498;2023-02-01T16:32:59;2.67;;;1.40;;
77202;SDS011;66327;50.096;8.498;2023-02-01T16:35:29;4.82;;;1.05;;
77202;SDS011;66327;50.096;8.498;2023-02-01T16:38:03;4.03;;;1.70;;
77202;SDS011;66327;50.096;8.498;2023-02-01T16:40:35;5.95;;;1.80;;
77202;SDS011;66327;50.096;8.498;2023-02-01T16:43:01;4.45;;;1.17;;
77202;SDS011;66327;50.096;8.498;2023-02-01T16:45:28;2.95;;;0.88;;
77202;SDS011;66327;50.096;8.498;2023-02-01T16:47:54;4.30;;;1.23;;
77202;SDS011;66327;50.096;8.498;2023-02-01T16:50:23;5.53;;;1.73;;
77202;SDS011;66327;50.096;8.498;2023-02-01T16:52:51;3.75;;;1.27;;
77202;SDS011;66327;50.096;8.498;2023-02-01T16:55:19;1.83;;;0.80;;
77202;SDS011;66327;50.096;8.498;2023-02-01T16:57:50;6.25;;;2.08;;
77202;SDS011;66327;50.096;8.498;2023-02-01T17:00:17;3.35;;;0.50;;
77202;SDS011;66327;50.096;8.498;2023-02-01T17:02:50;11.90;;;1.77;;
77202;SDS011;66327;50.096;8.498;2023-02-01T17:05:17;3.47;;;1.50;;
77202;SDS011;66327;50.096;8.498;2023-02-01T17:07:43;5.07;;;1.85;;
77202;SDS011;66327;50.096;8.498;2023-02-01T17:12:58;3.95;;;1.33;;
77202;SDS011;66327;50.096;8.498;2023-02-01T17:15:26;2.35;;;1.00;;
77202;SDS011;66327;50.096;8.498;2023-02-01T17:17:54;5.93;;;1.73;;
77202;SDS011;66327;50.096;8.498;2023-02-01T17:20:23;3.20;;;1.05;;
77202;SDS011;66327;50.096;8.498;2023-02-01T17:22:51;8.05;;;1.55;;
77202;SDS011;66327;50.096;8.498;2023-02-01T17:25:18;3.38;;;1.88;;
77202;SDS011;66327;50.096;8.498;2023-02-01T17:27:48;3.50;;;1.50;;
77202;SDS011;66327;50.096;8.498;2023-02-01T17:30:14;7.47;;;1.70;;
77202;SDS011;66327;50.096;8.498;2023-02-01T17:32:41;4.68;;;1.35;;
77202;SDS011;66327;50.096;8.498;2023-02-01T17:35:17;6.97;;;1.75;;
77202;SDS011;66327;50.096;8.498;2023-02-01T17:37:48;6.80;;;1.98;;
77202;SDS011;66327;50.096;8.498;2023-02-01T17:40:16;4.38;;;1.27;;
77202;SDS011;66327;50.096;8.498;2023-02-01T17:42:43;4.78;;;2.05;;
77202;SDS011;66327;50.096;8.498;2023-02-01T17:45:20;3.88;;;1.27;;
77202;SDS011;66327;50.096;8.498;2023-02-01T17:47:49;6.50;;;1.85;;
77202;SDS011;66327;50.096;8.498;2023-02-01T17:50:15;7.07;;;1.63;;